サンフアン の空港の天気 - METARとTAF

ルイス・ムニョス・マリン国際空港 ( TJSJ / SJU ) - プエルトリコ サンフアン
飛行場実況気象(Metar)
観測時間10/25 14:56 AST (10/25 18:56 UTC)
風向・風速東 8m/s
視程10km以上
天気現象
少しの雲 雲底高度 760m
全天の4割程度の雲 雲底高度 1040m
全天の4割程度の雲 雲底高度 1830m
気温31.1℃
湿度70%
気圧1014.1hPa
METARTJSJ 251856Z 08016KT 10SM FEW025 SCT034 SCT060 31/25 A2995 RMK AO2 SLP141 VCSH SE T03110250
過去の天気等 Google飛行場航空写真 Wunderground天気予報

過去48時間のMETAR

飛行場予報(TAF)
発表時間: 10/25 13:38 AST (10/25 17:38 UTC)
予報対象時間: 25日14時 AST ~ 26日14時 AST
風向・風速東 8m/s
視程10km以上
天気現象周辺でしゅう雨
少しの雲 雲底高度 760m
全天の4割程度の雲 雲底高度 910m
全天の4割程度の雲 雲底高度 1830m
25日18時 AST から
風向・風速東 4m/s
視程10km以上
天気現象周辺でしゅう雨
少しの雲 雲底高度 910m
全天の4割程度の雲 雲底高度 1830m
26日6時 AST から
風向・風速東 3m/s
視程10km以上
天気現象周辺でしゅう雨
全天の4割程度の雲 雲底高度 850m
全天の4割程度の雲 雲底高度 1220m
26日10時 AST から
風向・風速東北東 9m/s
視程10km以上
天気現象周辺でしゅう雨
全天の4割程度の雲 雲底高度 910m
全天の4割程度の雲 雲底高度 1220m
TJSJ 251738Z 2518/2618 08015KT P6SM VCSH FEW025 SCT030 SCT060
FM252200 10008KT P6SM VCSH FEW030 SCT060
FM261000 10005KT P6SM VCSH SCT028 SCT040
FM261430 07017KT P6SM VCSH SCT030 SCT040